Aérodrome :
LOGIN :

S'inscrire | Disclaimer

   EN    FR    IT 

 










Légende :    VFR   VFR Marginal   IFR   IFR Intensif   IFR Très Intensif
Visi : 
Plafond : 
>= 8 km
>= 3000ft
5 à 8 km
1000 à 3000 ft
1500m à 5 km
500 à 1000 ft
800 à 1500m
200 à 500 ft
< 800m
< 200 ft
Symboles :   Orages  Brouillard  Fortes neiges  Fortes précipitations  Vent > 20 kt
SIGMETs :   Divers  Orages  Givrage  Turbulence  Onde Orograph.  Cendres Volcan.






- Altitude de l'aérodrome : 42 ft
- Code IATA : KGD


UMKK - Khrabrava - Kaliningrad

DERNIER METAR :
  • 251200Z 24005MPS 9999 BKN012 07/05 Q0992 R24/290195 NOSIG RMK QFE743/0991

METARs EXPIRÉS :
  • 251130Z 22005MPS 180V250 9999 SCT009 BKN015 06/05 Q0992 R24/290195 NOSIG RMK QFE743/0991
  • 251100Z 20004MPS 9999 BKN006 BKN014CB 05/04 Q0992 R24/290195 NOSIG RMK QBB180 OBST OBSC QFE743/0991
  • 251030Z 18003MPS 160V220 9000 BKN006 BKN014CB 04/03 Q0993 R24/290195 NOSIG RMK QBB180 OBST OBSC QFE743/0991
  • 251000Z 17004MPS 140V200 9999 BKN006 BKN014CB 03/02 Q0993 R24/290195 NOSIG RMK QBB180 OBST OBSC QFE743/0991
  • 250930Z 16004MPS 9000 BKN005 BKN014CB 03/02 Q0993 R24/290195 NOSIG RMK QBB150 OBST OBSC QFE744/0992

TAF TAF UMKK
Valide du 25 à 12h jusqu'au 26 à 12h UTC


251057Z 2512/2612 25007G12MPS 3100 -SHRA BR BKN006 BKN011CB
BECMG 2513/2514 7000 NSW BKN011 SCT020CB
TEMPO 2514/2606 3100 -SHRA BR FEW005 BKN013CB
BECMG 2514/2516 21003G08MPS
BECMG 2520/2522 22006G12MPS
BECMG 2606/2608 22010G15MPS



MET'MAP, la Météo Aéronautique d'un coup d'oeil ! - Copyright ORBIFLY Décembre 2007 - Disclaimer

ORBIFLY MET'MAP TEAM :

Programmation & Développement : Alexandra Zaïnal
Sur une idée originale de : Baudouin d'Aumeries
Assistance à la programmation : Marc-Olivier Méhu
Soutien technique & logistique : Manuel Goepfert

Contact : metmap@orbifly.com




SOURCES & CREDITS :

   NOAA